Time;durP1;ratioP1;P1;durP2;ratioP2;P2;SDS_P1;SDS_P2;PMS_P1;PMS_P2;Temp;Humidity;BMP_temperature;BMP_pressure;BME280_temperature;BME280_humidity;BME280_pressure;Samples;Min_cycle;Max_cycle;Signal;HPM_P1;HPM_P2
2022/12/29 00:01:36;;;;;;;;;0.00;0.00;;;;;12.09;83.74;99999.94;5016548;28;45290;-57
2022/12/29 00:04:02;;;;;;;;;1.00;0.00;;;;;12.07;83.97;100002.72;5017114;28;45232;-58
2022/12/29 00:06:28;;;;;;;;;0.00;0.00;;;;;12.01;83.79;99987.19;5017235;28;45438;-58
2022/12/29 00:08:54;;;;;;;;;0.67;0.00;;;;;12.05;83.65;99985.13;5016904;28;46086;-57
2022/12/29 00:11:27;;;;;;;;;0.00;0.00;;;;;12.07;83.56;99986.72;5016455;28;45459;-58
2022/12/29 00:16:40;;;;;;;;;2.00;0.67;;;;;12.15;82.80;99988.00;5016656;28;45299;-56
2022/12/29 00:19:06;;;;;;;;;1.00;1.00;;;;;12.15;82.98;99972.00;5016478;28;45415;-56
2022/12/29 00:35:12;;;;;;;;;0.00;0.00;;;;;12.28;82.24;99964.81;5016129;28;45329;-57
2022/12/29 00:45:59;;;;;;;;;0.00;0.00;;;;;12.25;83.72;99947.25;5016104;28;45275;-58
2022/12/29 00:51:09;;;;;;;;;1.33;1.00;;;;;12.27;84.37;99950.63;5016234;28;45786;-57
2022/12/29 00:53:34;;;;;;;;;2.00;1.00;;;;;12.26;84.78;99942.75;5019084;28;45397;-57
2022/12/29 00:56:00;;;;;;;;;1.00;1.00;;;;;12.23;85.64;99943.81;5019277;28;45355;-59
2022/12/29 00:58:29;;;;;;;;;2.00;1.00;;;;;12.22;85.59;99965.25;5019442;28;45732;-58
2022/12/29 01:01:02;;;;;;;;;2.00;0.00;;;;;12.15;85.48;99972.84;5019131;28;46728;-57
2022/12/29 01:03:28;;;;;;;;;0.33;0.33;;;;;12.22;84.93;99970.59;5018903;28;45340;-57
2022/12/29 01:05:53;;;;;;;;;0.00;0.00;;;;;12.21;84.46;99961.72;5019277;28;45436;-58
2022/12/29 01:08:19;;;;;;;;;0.00;0.00;;;;;12.27;84.82;99971.97;5019183;28;45312;-57
2022/12/29 01:10:44;;;;;;;;;0.00;0.00;;;;;12.29;84.43;99963.84;5002300;28;46198;-57
2022/12/29 01:13:10;;;;;;;;;0.00;0.00;;;;;12.29;84.69;99975.38;5038085;28;45418;-57
2022/12/29 01:15:35;;;;;;;;;0.00;0.00;;;;;12.26;84.75;99958.75;5039030;28;45428;-57
2022/12/29 01:18:00;;;;;;;;;0.00;0.00;;;;;12.22;85.62;99963.44;5039033;28;45334;-57
2022/12/29 01:20:27;;;;;;;;;0.00;0.00;;;;;12.20;86.63;99965.38;5038061;28;46163;-56
2022/12/29 01:22:52;;;;;;;;;0.00;0.00;;;;;12.14;87.65;99957.84;5020809;28;45476;-56
2022/12/29 01:25:18;;;;;;;;;1.00;0.00;;;;;12.06;90.57;99958.38;5038734;28;45831;-56
2022/12/29 01:27:43;;;;;;;;;0.00;0.00;;;;;12.03;90.82;99984.41;5039221;28;45799;-57
2022/12/29 01:30:09;;;;;;;;;1.33;0.00;;;;;11.97;90.28;99958.19;5039021;28;45383;-57
2022/12/29 01:32:34;;;;;;;;;0.00;0.00;;;;;11.97;89.71;99974.16;5038785;28;45367;-57
2022/12/29 01:35:00;;;;;;;;;0.00;0.00;;;;;11.95;89.71;99965.44;5038656;28;45574;-57
2022/12/29 01:37:25;;;;;;;;;0.33;0.33;;;;;11.92;89.85;99955.00;5020698;28;45352;-58
2022/12/29 01:39:50;;;;;;;;;0.00;0.00;;;;;11.92;89.25;99971.00;5038056;28;46604;-57
2022/12/29 01:42:18;;;;;;;;;2.00;0.00;;;;;11.97;88.39;99968.84;5020658;28;45316;-57
2022/12/29 01:44:50;;;;;;;;;0.00;0.00;;;;;11.93;88.11;99972.69;5038944;28;45403;-58
2022/12/29 01:47:41;;;;;;;;;1.00;0.00;;;;;11.92;87.33;99966.50;5038601;28;45571;-57
2022/12/29 01:50:17;;;;;;;;;0.00;0.00;;;;;11.90;86.27;99978.25;5037593;28;45693;-57
2022/12/29 01:52:51;;;;;;;;;0.00;0.00;;;;;11.88;85.74;99964.19;5023207;28;45293;-57
2022/12/29 01:55:17;;;;;;;;;0.00;0.00;;;;;11.87;86.31;99970.47;5000855;28;45289;-57
2022/12/29 01:57:48;;;;;;;;;0.00;0.00;;;;;11.85;85.91;99981.25;5001653;28;45519;-59
2022/12/29 02:00:14;;;;;;;;;1.33;0.00;;;;;11.84;85.89;99973.34;5019043;28;45476;-57
2022/12/29 02:02:47;;;;;;;;;0.00;0.00;;;;;11.82;85.15;99987.63;5018065;28;45324;-57
2022/12/29 02:05:29;;;;;;;;;0.00;0.00;;;;;11.68;84.18;99966.41;5018788;28;45301;-58
2022/12/29 02:07:54;;;;;;;;;0.00;0.00;;;;;11.76;84.04;99972.06;5018394;28;45373;-58
2022/12/29 02:10:26;;;;;;;;;0.00;0.00;;;;;11.77;83.46;99965.75;5017833;28;46252;-57
2022/12/29 02:12:52;;;;;;;;;0.00;0.00;;;;;11.73;83.34;99961.63;5000119;28;45469;-57
2022/12/29 02:15:25;;;;;;;;;0.00;0.00;;;;;11.73;82.64;99980.28;5017667;28;45462;-57
2022/12/29 02:18:12;;;;;;;;;0.00;0.00;;;;;11.71;82.66;99990.16;5018133;28;45345;-57
2022/12/29 02:21:06;;;;;;;;;1.00;0.00;;;;;11.70;83.96;99984.94;5018035;28;46647;-56
2022/12/29 02:23:56;;;;;;;;;0.00;0.00;;;;;11.59;84.99;99991.03;5018517;28;45513;-60
2022/12/29 02:26:28;;;;;;;;;0.00;0.00;;;;;11.51;85.36;99990.72;5018145;28;45285;-56
2022/12/29 02:29:13;;;;;;;;;0.00;0.00;;;;;11.41;85.08;99993.16;5018427;28;45511;-57
2022/12/29 02:31:48;;;;;;;;;0.00;0.00;;;;;11.35;84.96;99987.41;5000225;28;46348;-58
2022/12/29 02:34:31;;;;;;;;;0.00;0.00;;;;;11.31;84.63;99991.22;5018138;28;45373;-60
2022/12/29 02:37:03;;;;;;;;;1.00;0.00;;;;;11.30;84.79;99982.38;5017859;28;45462;-57
2022/12/29 02:39:39;;;;;;;;;0.00;0.00;;;;;11.27;84.58;99973.75;5000137;28;45281;-57
2022/12/29 02:42:16;;;;;;;;;0.00;0.00;;;;;11.14;84.91;99955.13;5000566;28;45436;-56
2022/12/29 02:45:13;;;;;;;;;1.00;0.00;;;;;11.16;84.81;99970.00;5017765;28;45364;-57
2022/12/29 02:47:45;;;;;;;;;0.00;0.00;;;;;11.16;85.01;99959.38;4999948;28;45282;-57
2022/12/29 02:50:20;;;;;;;;;0.33;0.00;;;;;11.16;84.55;99964.69;5000014;28;45341;-57
2022/12/29 02:53:01;;;;;;;;;0.00;0.00;;;;;11.19;84.57;99977.78;5017877;28;45457;-58
2022/12/29 02:55:27;;;;;;;;;1.00;0.00;;;;;11.15;84.19;99963.00;5018217;28;45298;-57
2022/12/29 02:58:14;;;;;;;;;0.33;0.00;;;;;11.23;84.22;99978.44;5018381;28;45237;-58
2022/12/29 03:01:06;;;;;;;;;0.33;0.00;;;;;11.18;83.44;99962.78;5000240;28;45498;-58
2022/12/29 03:03:42;;;;;;;;;0.00;0.00;;;;;11.27;83.50;99976.41;4969037;28;48125;-58
2022/12/29 03:06:51;;;;;;;;;0.00;0.00;;;;;11.28;82.69;99964.81;5017395;28;45268;-58
2022/12/29 03:09:35;;;;;;;;;0.00;0.00;;;;;11.29;82.71;99962.03;5017732;28;45356;-57
2022/12/29 03:12:18;;;;;;;;;0.00;0.00;;;;;11.31;82.33;99964.59;5029266;28;45436;-57
2022/12/29 03:17:56;;;;;;;;;0.00;0.00;;;;;11.31;81.65;99970.78;5037137;28;45436;-56
2022/12/29 03:20:29;;;;;;;;;0.00;0.00;;;;;11.23;81.53;99968.66;5037137;28;45257;-57
2022/12/29 03:23:01;;;;;;;;;0.00;0.00;;;;;11.30;82.76;99968.22;5037162;28;45347;-57
2022/12/29 03:25:38;;;;;;;;;0.00;0.00;;;;;11.21;82.42;99980.38;5036857;28;46267;-58
2022/12/29 03:28:27;;;;;;;;;0.00;0.00;;;;;11.18;82.07;99978.75;5037200;28;45190;-58
2022/12/29 03:30:54;;;;;;;;;0.00;0.00;;;;;11.11;81.79;99969.50;5036380;28;45267;-58
2022/12/29 03:33:26;;;;;;;;;0.00;0.00;;;;;11.06;82.16;99971.59;5037337;28;45649;-58
2022/12/29 03:35:57;;;;;;;;;0.00;0.00;;;;;11.05;81.31;99980.53;5036756;28;46128;-58
2022/12/29 03:38:33;;;;;;;;;6.00;0.00;;;;;11.00;81.79;99972.03;5037025;28;45356;-57
2022/12/29 03:41:03;;;;;;;;;1.00;0.00;;;;;11.08;81.51;99985.69;5019064;28;45316;-57
2022/12/29 03:43:29;;;;;;;;;1.00;0.00;;;;;11.02;81.30;99975.44;5019361;28;45569;-58
2022/12/29 03:45:55;;;;;;;;;2.00;0.00;;;;;11.15;80.94;99992.28;5036497;28;45486;-57
2022/12/29 03:48:20;;;;;;;;;0.00;0.00;;;;;11.13;80.19;99988.88;5037035;28;45521;-57
2022/12/29 03:50:46;;;;;;;;;0.00;0.00;;;;;11.19;80.20;99993.75;5036805;28;45386;-58
2022/12/29 03:53:11;;;;;;;;;0.00;0.00;;;;;11.18;80.56;99981.41;4999996;28;45677;-58
2022/12/29 03:55:36;;;;;;;;;0.00;0.00;;;;;11.19;80.25;99976.94;4982370;28;45761;-58
2022/12/29 03:58:02;;;;;;;;;0.00;0.00;;;;;11.23;79.79;99989.94;5016764;28;45352;-57
2022/12/29 04:00:28;;;;;;;;;1.00;0.00;;;;;11.17;79.65;99979.69;5016814;28;45407;-59
2022/12/29 04:02:53;;;;;;;;;0.00;0.00;;;;;11.18;79.61;99970.75;5016781;28;45602;-58
2022/12/29 04:05:19;;;;;;;;;0.00;0.00;;;;;11.23;79.91;99992.63;4999116;28;45595;-57
2022/12/29 04:07:44;;;;;;;;;0.00;0.00;;;;;11.21;79.58;100007.84;5016343;28;45356;-56
2022/12/29 04:10:09;;;;;;;;;0.00;0.00;;;;;11.22;79.76;100006.88;5016401;28;45171;-57
2022/12/29 04:12:35;;;;;;;;;0.00;0.00;;;;;11.22;79.21;100008.69;5016390;28;45597;-57
2022/12/29 04:15:00;;;;;;;;;0.00;0.00;;;;;11.21;79.52;100013.16;5015984;28;45292;-58
2022/12/29 04:17:25;;;;;;;;;1.00;0.00;;;;;11.23;79.59;100007.72;5015932;28;45303;-58
2022/12/29 04:19:51;;;;;;;;;2.00;0.00;;;;;11.14;79.86;99989.72;5016395;28;45349;-57
2022/12/29 04:22:16;;;;;;;;;1.00;1.00;;;;;11.22;80.20;99998.91;5016264;28;45613;-57
2022/12/29 04:24:41;;;;;;;;;1.00;0.00;;;;;11.11;80.08;99987.28;5015639;28;46493;-57
2022/12/29 04:27:07;;;;;;;;;0.00;0.00;;;;;11.22;79.63;100012.19;5015928;28;45237;-57
2022/12/29 04:29:32;;;;;;;;;0.00;0.00;;;;;11.25;80.12;100015.59;5016129;28;45481;-57
2022/12/29 04:31:58;;;;;;;;;0.00;0.00;;;;;11.29;79.34;100027.75;5016379;28;45642;-56
2022/12/29 04:34:24;;;;;;;;;1.00;0.00;;;;;11.21;79.69;100021.16;4998417;28;45400;-57
2022/12/29 04:36:49;;;;;;;;;0.00;0.00;;;;;11.25;79.71;100016.47;5016306;28;45388;-59
2022/12/29 04:39:15;;;;;;;;;0.00;0.00;;;;;11.26;79.39;100026.16;5016203;28;45367;-57
2022/12/29 04:41:40;;;;;;;;;0.00;0.00;;;;;11.27;79.77;100027.00;5015652;28;45594;-56
2022/12/29 04:44:06;;;;;;;;;2.33;0.00;;;;;11.26;79.57;100039.47;5015814;28;49409;-57
2022/12/29 04:46:31;;;;;;;;;0.00;0.00;;;;;11.23;79.46;100040.53;4997943;28;45341;-57
2022/12/29 04:48:56;;;;;;;;;0.00;0.00;;;;;11.29;79.68;100041.06;5016221;28;45419;-58
2022/12/29 04:51:22;;;;;;;;;0.00;0.00;;;;;11.30;79.94;100043.59;4998776;28;45528;-57
2022/12/29 04:53:47;;;;;;;;;0.00;0.00;;;;;11.31;78.96;100031.16;5015284;28;45379;-57
2022/12/29 04:56:12;;;;;;;;;0.00;0.00;;;;;11.37;78.83;100046.72;5015700;28;45308;-57
2022/12/29 04:58:38;;;;;;;;;1.00;0.00;;;;;11.41;79.00;100042.88;5015929;28;45336;-57
2022/12/29 05:01:03;;;;;;;;;0.00;0.00;;;;;11.35;79.14;100014.03;5016003;28;45514;-58
2022/12/29 05:03:28;;;;;;;;;0.00;0.00;;;;;11.40;78.48;100041.19;4997741;28;47696;-58
2022/12/29 05:05:55;;;;;;;;;0.67;0.00;;;;;11.43;78.06;100052.47;5016236;28;45217;-58
2022/12/29 05:08:21;;;;;;;;;0.33;0.33;;;;;11.35;78.22;100041.50;5016889;28;45303;-58
2022/12/29 05:10:46;;;;;;;;;0.33;0.33;;;;;11.45;78.37;100063.84;5017878;28;45408;-58
2022/12/29 05:13:12;;;;;;;;;2.00;0.00;;;;;11.47;77.04;100055.78;5035830;28;45981;-57
2022/12/29 05:15:37;;;;;;;;;0.33;0.00;;;;;11.42;76.68;100048.09;5035330;28;45162;-58
2022/12/29 05:18:02;;;;;;;;;1.33;0.67;;;;;11.42;77.14;100052.56;5032417;28;45647;-57
2022/12/29 05:20:28;;;;;;;;;0.00;0.00;;;;;11.44;77.61;100061.31;5035756;28;45293;-58
2022/12/29 05:22:53;;;;;;;;;1.00;0.00;;;;;11.41;77.39;100059.72;5035891;28;46090;-58
2022/12/29 05:25:18;;;;;;;;;1.00;0.00;;;;;11.42;77.50;100055.22;5017402;28;45437;-57
2022/12/29 05:27:44;;;;;;;;;0.00;0.00;;;;;11.38;77.55;100053.75;5035521;28;45338;-57
2022/12/29 05:30:10;;;;;;;;;0.00;0.00;;;;;11.38;78.25;100067.06;5035597;28;45249;-56
2022/12/29 05:32:35;;;;;;;;;0.00;0.00;;;;;11.36;77.73;100071.63;5034998;28;46379;-56
2022/12/29 05:35:01;;;;;;;;;1.00;0.00;;;;;11.35;77.62;100076.13;5034272;28;45375;-57
2022/12/29 05:37:26;;;;;;;;;0.00;0.00;;;;;11.35;77.27;100081.44;5036597;28;45742;-57
2022/12/29 05:39:52;;;;;;;;;0.00;0.00;;;;;11.33;77.30;100082.47;5021032;28;45502;-56
2022/12/29 05:42:17;;;;;;;;;1.00;0.00;;;;;11.31;76.48;100074.59;5038537;28;46562;-57
2022/12/29 05:44:43;;;;;;;;;0.00;0.00;;;;;11.32;76.89;100088.75;5038577;28;45401;-57
2022/12/29 05:47:08;;;;;;;;;0.00;0.00;;;;;11.31;76.85;100077.25;5038606;28;45307;-57
2022/12/29 05:49:33;;;;;;;;;2.00;0.00;;;;;11.32;76.40;100088.75;5038855;28;45555;-57
2022/12/29 05:51:59;;;;;;;;;1.00;1.00;;;;;11.24;76.18;100068.00;5020594;28;46270;-57
2022/12/29 05:54:24;;;;;;;;;0.00;0.00;;;;;11.27;75.91;100075.75;5039253;28;45256;-58
2022/12/29 05:56:49;;;;;;;;;0.67;0.00;;;;;11.28;75.68;100081.94;5038488;28;45316;-58
2022/12/29 05:59:15;;;;;;;;;1.00;0.00;;;;;11.23;75.23;100084.91;5038762;28;45516;-57
2022/12/29 06:01:40;;;;;;;;;0.00;0.00;;;;;11.21;75.46;100084.19;5038320;28;46092;-57
2022/12/29 06:04:06;;;;;;;;;1.00;0.00;;;;;11.30;74.87;100101.31;5038245;28;45249;-56
2022/12/29 06:06:31;;;;;;;;;0.00;0.00;;;;;11.28;75.19;100097.91;5038230;28;45832;-56
2022/12/29 06:08:56;;;;;;;;;0.33;0.33;;;;;11.28;74.19;100103.22;5020770;28;45435;-57
2022/12/29 06:11:22;;;;;;;;;1.00;1.00;;;;;11.29;74.50;100110.25;5020051;28;48133;-57
2022/12/29 06:13:47;;;;;;;;;3.00;0.00;;;;;11.26;74.05;100113.13;5038039;28;45241;-56
2022/12/29 06:16:12;;;;;;;;;2.33;0.00;;;;;11.26;73.63;100118.47;5020104;28;45310;-57
2022/12/29 06:18:38;;;;;;;;;0.00;0.00;;;;;11.21;74.36;100103.66;5038346;28;45402;-57
2022/12/29 06:21:04;;;;;;;;;1.00;0.00;;;;;11.23;74.21;100117.72;5037712;28;47108;-57
2022/12/29 06:23:30;;;;;;;;;1.00;0.00;;;;;11.18;74.63;100117.16;5038017;28;45358;-57
2022/12/29 06:25:56;;;;;;;;;0.67;0.00;;;;;11.19;73.12;100118.84;5038192;28;45429;-57
2022/12/29 06:28:21;;;;;;;;;0.00;0.00;;;;;11.17;74.85;100134.06;5038126;28;45577;-56
2022/12/29 06:30:48;;;;;;;;;0.00;0.00;;;;;11.11;74.25;100133.63;5037792;28;45731;-58
2022/12/29 06:33:13;;;;;;;;;1.00;0.00;;;;;11.12;74.44;100143.31;5037730;28;45549;-57
2022/12/29 06:35:39;;;;;;;;;0.00;0.00;;;;;11.08;74.41;100148.00;5037665;28;45316;-57
2022/12/29 06:38:05;;;;;;;;;0.00;0.00;;;;;11.14;73.81;100150.25;5037831;28;45589;-57
2022/12/29 06:40:31;;;;;;;;;2.00;1.00;;;;;11.05;74.78;100145.53;5037556;28;46108;-57
2022/12/29 06:42:56;;;;;;;;;2.00;0.67;;;;;11.09;74.69;100165.69;5037577;28;45408;-66
2022/12/29 06:45:22;;;;;;;;;0.00;0.00;;;;;11.01;74.25;100149.34;5002910;28;45293;-57
2022/12/29 06:47:47;;;;;;;;;1.00;0.00;;;;;11.06;74.42;100178.31;5053292;28;45204;-58
2022/12/29 06:50:12;;;;;;;;;0.33;0.00;;;;;11.04;74.79;100164.25;5036149;28;45359;-57
2022/12/29 06:52:38;;;;;;;;;0.33;0.00;;;;;11.08;74.74;100185.25;5037428;28;45261;-56
2022/12/29 06:55:04;;;;;;;;;2.00;0.00;;;;;11.10;75.08;100175.38;5037335;28;45310;-58
2022/12/29 06:57:29;;;;;;;;;0.33;0.33;;;;;11.08;74.87;100181.75;5037972;28;45633;-58
2022/12/29 06:59:57;;;;;;;;;0.00;0.00;;;;;11.09;74.87;100184.31;5037029;28;45435;-58
2022/12/29 07:02:24;;;;;;;;;1.33;0.00;;;;;11.10;74.39;100196.66;5019314;28;45394;-57
2022/12/29 07:04:51;;;;;;;;;4.00;0.00;;;;;11.12;75.33;100205.38;5037280;28;45336;-57
2022/12/29 07:07:17;;;;;;;;;2.00;1.00;;;;;11.09;75.02;100189.63;5037601;28;45477;-58
2022/12/29 07:09:43;;;;;;;;;1.33;0.33;;;;;11.10;75.14;100207.31;5037769;28;45631;-59
2022/12/29 07:12:08;;;;;;;;;0.33;0.00;;;;;11.08;74.91;100177.28;5019590;28;45502;-57
2022/12/29 07:14:33;;;;;;;;;0.00;0.00;;;;;11.03;74.15;100179.34;5037774;28;45222;-59
2022/12/29 07:16:59;;;;;;;;;1.00;1.00;;;;;11.10;74.42;100188.66;5037906;28;45355;-58
2022/12/29 07:19:24;;;;;;;;;0.00;0.00;;;;;11.06;74.23;100178.31;5036864;28;46415;-57
2022/12/29 07:21:49;;;;;;;;;0.00;0.00;;;;;11.06;74.70;100181.81;5037045;28;45469;-58
2022/12/29 07:24:15;;;;;;;;;0.00;0.00;;;;;11.05;74.15;100188.09;5037273;28;45328;-58
2022/12/29 07:26:41;;;;;;;;;2.00;1.00;;;;;11.05;73.66;100198.75;5037048;28;45408;-57
2022/12/29 07:29:06;;;;;;;;;0.00;0.00;;;;;11.06;74.22;100194.28;5018077;28;45575;-57
2022/12/29 07:31:32;;;;;;;;;1.33;0.00;;;;;11.05;73.90;100192.56;5018075;28;57359;-58
2022/12/29 07:33:57;;;;;;;;;1.00;0.00;;;;;11.07;74.58;100204.00;5036973;28;45458;-57
2022/12/29 07:36:23;;;;;;;;;0.00;0.00;;;;;11.01;73.67;100193.72;5036955;28;45519;-58
2022/12/29 07:38:48;;;;;;;;;2.00;0.00;;;;;10.97;74.26;100206.38;5018528;28;46118;-58
2022/12/29 07:41:14;;;;;;;;;0.00;0.00;;;;;11.00;75.30;100222.13;5036657;28;45340;-57
2022/12/29 07:43:39;;;;;;;;;2.00;0.00;;;;;11.01;74.19;100225.66;5036864;28;45891;-58
2022/12/29 07:46:04;;;;;;;;;0.00;0.00;;;;;10.97;74.47;100226.81;5018840;28;45675;-60
2022/12/29 07:48:30;;;;;;;;;1.00;1.00;;;;;11.01;73.72;100223.84;5036719;28;46111;-58
2022/12/29 07:50:55;;;;;;;;;2.00;2.00;;;;;11.01;74.37;100238.97;5036619;28;45295;-58
2022/12/29 07:53:21;;;;;;;;;0.00;0.00;;;;;10.92;73.17;100237.72;5036645;28;45708;-57
2022/12/29 07:55:46;;;;;;;;;5.33;0.00;;;;;10.90;73.96;100226.31;5018969;28;45693;-57
2022/12/29 07:58:11;;;;;;;;;2.00;0.00;;;;;10.85;74.74;100217.78;5036644;28;46222;-57
2022/12/29 08:00:38;;;;;;;;;0.00;0.00;;;;;10.87;74.38;100239.84;5036665;28;45243;-58
2022/12/29 08:03:04;;;;;;;;;0.00;0.00;;;;;10.89;74.19;100245.91;5019890;28;45356;-58
2022/12/29 08:05:31;;;;;;;;;0.00;0.00;;;;;10.89;73.85;100256.53;5037604;28;45464;-58
2022/12/29 08:07:57;;;;;;;;;3.67;0.00;;;;;10.90;74.04;100260.91;5036083;28;46233;-57
2022/12/29 08:10:22;;;;;;;;;0.00;0.00;;;;;10.89;74.07;100259.22;5019284;28;45413;-57
2022/12/29 08:12:48;;;;;;;;;2.00;1.00;;;;;10.89;73.59;100261.88;5018365;28;45315;-58
2022/12/29 08:15:13;;;;;;;;;1.00;0.00;;;;;10.89;73.81;100267.19;5016495;28;45472;-57
2022/12/29 08:17:38;;;;;;;;;0.00;0.00;;;;;10.92;73.94;100282.94;5015412;28;46125;-56
2022/12/29 08:20:05;;;;;;;;;2.00;1.00;;;;;10.89;73.42;100277.81;5016405;28;45329;-57
2022/12/29 08:22:30;;;;;;;;;2.00;0.00;;;;;10.87;73.56;100272.59;5015647;28;45218;-57
2022/12/29 08:24:55;;;;;;;;;4.00;1.00;;;;;10.86;73.49;100275.38;5016348;28;45474;-57
2022/12/29 08:27:21;;;;;;;;;0.33;0.00;;;;;10.90;73.61;100275.06;4996253;28;46240;-57
2022/12/29 08:29:47;;;;;;;;;2.00;1.00;;;;;10.90;73.49;100285.72;4996377;28;45211;-57
2022/12/29 08:32:12;;;;;;;;;0.67;0.67;;;;;10.93;73.26;100297.97;4996092;28;45347;-58
2022/12/29 08:34:37;;;;;;;;;0.67;0.67;;;;;10.92;73.20;100289.13;4978678;28;45530;-57
2022/12/29 08:37:03;;;;;;;;;1.00;1.00;;;;;10.95;73.11;100296.09;4996280;28;46281;-58
2022/12/29 08:39:30;;;;;;;;;1.67;0.00;;;;;10.96;72.92;100299.59;4994910;28;45225;-58
2022/12/29 08:41:56;;;;;;;;;1.00;0.00;;;;;10.90;73.41;100292.84;4978417;28;45337;-58
2022/12/29 08:44:21;;;;;;;;;1.67;0.00;;;;;10.96;73.52;100305.78;4978487;28;45592;-56
2022/12/29 08:46:47;;;;;;;;;2.00;1.00;;;;;10.96;72.32;100312.91;4995854;28;46375;-57
2022/12/29 08:49:12;;;;;;;;;0.67;0.67;;;;;10.99;72.59;100313.56;4995718;28;45383;-58
2022/12/29 08:51:38;;;;;;;;;0.00;0.00;;;;;11.00;72.38;100317.06;4978848;28;45480;-57
2022/12/29 08:54:03;;;;;;;;;0.33;0.00;;;;;11.00;72.71;100311.75;4996695;28;45499;-57
2022/12/29 08:56:29;;;;;;;;;0.33;0.33;;;;;10.96;72.30;100316.41;4995835;28;46277;-57
2022/12/29 08:58:55;;;;;;;;;2.00;0.33;;;;;11.01;72.74;100306.34;4978285;28;45402;-57
2022/12/29 09:01:20;;;;;;;;;2.00;0.00;;;;;10.88;72.52;100300.91;4979049;28;45344;-56
2022/12/29 09:03:46;;;;;;;;;2.00;1.00;;;;;11.03;71.61;100324.88;4995807;28;45641;-57
2022/12/29 09:06:12;;;;;;;;;2.00;1.00;;;;;11.01;71.72;100318.78;4995468;28;45300;-57
2022/12/29 09:08:37;;;;;;;;;0.67;0.67;;;;;11.02;71.98;100321.34;4978220;28;45302;-56
2022/12/29 09:11:11;;;;;;;;;1.00;1.00;;;;;11.06;72.23;100327.31;4999623;28;45256;-58
2022/12/29 09:13:37;;;;;;;;;2.00;0.00;;;;;10.95;72.26;100311.19;5000848;28;45256;-57
2022/12/29 09:16:03;;;;;;;;;1.33;0.67;;;;;11.06;72.31;100337.97;5018530;28;45333;-56
2022/12/29 09:18:30;;;;;;;;;0.00;0.00;;;;;11.05;71.81;100330.94;5018942;28;45530;-57
2022/12/29 09:20:58;;;;;;;;;2.67;0.67;;;;;11.14;70.48;100336.56;5001181;28;45341;-57
2022/12/29 09:23:23;;;;;;;;;2.00;0.00;;;;;11.15;71.79;100350.72;5019205;28;45401;-56
2022/12/29 09:25:48;;;;;;;;;3.00;2.00;;;;;11.16;71.38;100350.63;5018526;28;45855;-58
2022/12/29 09:28:17;;;;;;;;;1.00;1.00;;;;;11.13;72.03;100356.13;5018848;28;45367;-59
2022/12/29 09:30:42;;;;;;;;;2.00;2.00;;;;;11.17;70.93;100370.97;5018616;28;45195;-58
2022/12/29 09:33:08;;;;;;;;;7.00;0.00;;;;;11.17;71.37;100364.78;5019227;28;45217;-58
2022/12/29 09:35:33;;;;;;;;;1.00;1.00;;;;;11.12;70.91;100359.75;5000806;28;48191;-57
2022/12/29 09:37:58;;;;;;;;;1.33;0.00;;;;;11.04;71.36;100340.72;5000998;28;45222;-58
2022/12/29 09:40:32;;;;;;;;;1.00;1.00;;;;;11.15;71.54;100370.19;5001171;28;45261;-58
2022/12/29 09:43:35;;;;;;;;;3.33;1.00;;;;;11.16;71.67;100369.25;5018838;28;45577;-58
2022/12/29 09:46:26;;;;;;;;;3.00;1.00;;;;;11.17;71.31;100378.09;4968011;28;45471;-59
2022/12/29 09:48:56;;;;;;;;;1.67;1.00;;;;;11.30;71.62;100378.19;5003212;28;45345;-58
2022/12/29 09:51:25;;;;;;;;;2.00;1.00;;;;;11.33;70.14;100380.66;5021380;28;45373;-56
2022/12/29 09:53:58;;;;;;;;;2.33;1.33;;;;;11.35;70.35;100381.44;5019405;28;45571;-58
2022/12/29 09:56:25;;;;;;;;;5.33;2.00;;;;;11.40;70.70;100389.97;5018342;28;45413;-57
2022/12/29 09:59:02;;;;;;;;;2.00;0.00;;;;;11.44;70.39;100388.81;5018382;28;45435;-58
2022/12/29 10:01:45;;;;;;;;;3.00;1.33;;;;;11.45;70.16;100391.38;5018388;28;45467;-57
2022/12/29 10:04:11;;;;;;;;;2.33;1.67;;;;;11.44;70.55;100403.00;5018476;28;45419;-57
2022/12/29 10:06:46;;;;;;;;;2.00;1.00;;;;;11.43;70.52;100403.09;5000090;28;46634;-57
2022/12/29 10:09:22;;;;;;;;;1.00;1.00;;;;;11.53;70.01;100418.41;5018605;28;45881;-56
2022/12/29 10:12:19;;;;;;;;;2.00;1.67;;;;;11.62;70.08;100406.31;5017991;28;45451;-58
2022/12/29 10:15:03;;;;;;;;;3.00;1.33;;;;;11.68;69.67;100411.25;5018593;28;45352;-59
2022/12/29 10:18:01;;;;;;;;;2.67;1.67;;;;;11.70;68.65;100417.31;5000300;28;45425;-56
2022/12/29 10:20:42;;;;;;;;;6.33;2.33;;;;;11.69;68.84;100407.63;5000557;28;45270;-57
2022/12/29 10:23:08;;;;;;;;;1.00;1.00;;;;;11.67;69.48;100398.88;5018213;28;45346;-58
2022/12/29 10:25:38;;;;;;;;;2.00;1.00;;;;;11.69;68.91;100404.09;5005381;28;45294;-57
2022/12/29 10:28:15;;;;;;;;;0.00;0.00;;;;;11.66;69.26;100407.84;5037805;28;46303;-59
2022/12/29 10:30:43;;;;;;;;;3.33;1.00;;;;;11.63;68.05;100405.38;5037946;28;45325;-57
2022/12/29 10:33:18;;;;;;;;;1.67;1.00;;;;;11.64;69.46;100403.56;5038188;28;45392;-57
2022/12/29 10:35:45;;;;;;;;;3.00;1.67;;;;;11.62;68.79;100401.00;5038032;28;45471;-57
2022/12/29 10:38:35;;;;;;;;;3.00;1.67;;;;;11.60;69.11;100402.91;5037911;28;45329;-57
2022/12/29 10:41:14;;;;;;;;;3.33;1.00;;;;;11.62;69.29;100392.16;5037894;28;45352;-57
2022/12/29 10:43:49;;;;;;;;;4.00;1.00;;;;;11.61;68.26;100395.78;5037814;28;45348;-58
2022/12/29 10:46:22;;;;;;;;;1.00;1.00;;;;;11.56;68.61;100396.03;5037973;28;45409;-56
2022/12/29 10:48:48;;;;;;;;;1.67;0.67;;;;;11.51;68.39;100391.00;5036526;28;45477;-58
2022/12/29 10:51:38;;;;;;;;;6.00;1.00;;;;;11.56;68.78;100396.03;5037678;28;45832;-57
2022/12/29 10:54:23;;;;;;;;;2.00;0.00;;;;;11.64;68.58;100404.41;5037513;28;45405;-58
2022/12/29 10:57:02;;;;;;;;;2.67;1.00;;;;;11.73;68.25;100401.19;5037475;28;45575;-57
2022/12/29 10:59:33;;;;;;;;;2.67;1.00;;;;;11.79;67.17;100392.81;5037223;28;45344;-59
2022/12/29 11:02:04;;;;;;;;;2.00;2.00;;;;;11.88;66.70;100390.53;5037584;28;45346;-57
2022/12/29 11:05:04;;;;;;;;;1.00;1.00;;;;;11.86;67.31;100398.63;5002703;28;45477;-61
2022/12/29 11:07:30;;;;;;;;;7.33;2.00;;;;;11.94;66.48;100403.44;5019767;28;45596;-59
2022/12/29 11:10:15;;;;;;;;;1.67;1.67;;;;;11.95;65.32;100408.66;5037446;28;46133;-58
2022/12/29 11:12:40;;;;;;;;;2.00;1.00;;;;;11.90;65.39;100393.94;5037490;28;45470;-58
2022/12/29 11:15:07;;;;;;;;;3.00;1.00;;;;;11.96;64.48;100388.19;5035618;28;45450;-58
2022/12/29 11:17:48;;;;;;;;;3.00;1.00;;;;;12.07;65.05;100399.88;5037510;28;45421;-58
2022/12/29 11:20:27;;;;;;;;;1.00;1.00;;;;;12.10;64.58;100397.00;5036081;28;46415;-58
2022/12/29 11:22:53;;;;;;;;;2.00;0.00;;;;;12.07;64.39;100399.00;5036928;28;45391;-57
2022/12/29 11:25:18;;;;;;;;;2.00;1.00;;;;;12.08;64.86;100404.25;5033524;28;45317;-58
2022/12/29 11:28:02;;;;;;;;;4.00;1.00;;;;;12.07;63.32;100401.69;5017746;28;45400;-58
2022/12/29 11:30:31;;;;;;;;;3.67;2.00;;;;;12.10;63.95;100396.13;5017031;28;45459;-58
2022/12/29 11:32:57;;;;;;;;;2.00;1.00;;;;;12.15;64.27;100394.03;5016969;28;45976;-58
2022/12/29 11:35:37;;;;;;;;;1.33;1.33;;;;;12.23;64.13;100402.38;5016245;28;45313;-58
2022/12/29 11:38:04;;;;;;;;;2.00;2.00;;;;;12.15;63.80;100394.03;4999361;28;45441;-58
2022/12/29 11:40:31;;;;;;;;;5.33;1.33;;;;;12.33;65.08;100394.63;4999060;28;46815;-58
2022/12/29 11:43:04;;;;;;;;;1.00;1.00;;;;;12.31;64.07;100404.56;5017268;28;45269;-57
2022/12/29 11:45:33;;;;;;;;;1.67;1.00;;;;;12.25;64.66;100392.50;5000401;28;45505;-58
2022/12/29 11:48:09;;;;;;;;;2.00;0.33;;;;;12.18;63.30;100403.66;5017436;28;45618;-57
2022/12/29 11:50:39;;;;;;;;;2.33;1.00;;;;;12.10;63.68;100398.81;5015815;28;45271;-57
2022/12/29 11:53:16;;;;;;;;;1.33;1.00;;;;;12.14;64.78;100392.34;5016980;28;45368;-56
2022/12/29 11:56:10;;;;;;;;;2.00;2.00;;;;;12.21;63.54;100390.09;5016563;28;45379;-57
2022/12/29 11:58:38;;;;;;;;;1.00;1.00;;;;;12.22;63.23;100386.47;5016647;28;45523;-58
2022/12/29 12:01:18;;;;;;;;;2.00;1.00;;;;;12.28;62.91;100383.44;4998383;28;48696;-58
2022/12/29 12:04:10;;;;;;;;;1.00;1.00;;;;;12.30;63.91;100381.50;5016633;28;45356;-57
2022/12/29 12:06:46;;;;;;;;;7.33;1.00;;;;;12.31;62.56;100356.56;5009703;28;45438;-57
2022/12/29 12:09:22;;;;;;;;;0.00;0.00;;;;;12.27;62.59;100347.91;5016424;28;45344;-58